CheckWX is a tool to help pilots better visualize weather data.  It is not intended as a substitute for an official pre-flight weather briefing.

12:20:12 UTC

KHBG TAF
Hattiesburg Bobby L Chain Municipal Airport
Hattiesburg, Mississippi, USA
KHBG 241129Z 2412/2512 24010KT P6SM VCSH BKN040 FM242200 22003KT P6SM BKN150

Jun-24@
12:00 UTC

Jun-24 @ 12:00 UTC

Jun-24@
22:00 UTC

Jun-24 @ 22:00 UTC

KHBG 241129Z 2412/2512 24010KT P6SM VCSH BKN040
Wind
  • 240° at 10 KTS
Cloud Levels
  • Broken at 4,000' AGL

Jun-24@
22:00 UTC

Jun-24 @ 22:00 UTC

Jun-25@
12:00 UTC

Jun-25 @ 12:00 UTC

FM242200 22003KT P6SM BKN150

From

From Standard forecast or significant change

Wind
  • 220° at 3 KTS
Cloud Levels
  • Broken at 15,000' AGL